sensor_id;sensor_type;location;lat;lon;timestamp;P1;durP1;ratioP1;P2;durP2;ratioP2
31760;SDS011;18335;51.486;7.562;2023-04-15T00:01:11;15.90;;;8.48;;
31760;SDS011;18335;51.486;7.562;2023-04-15T00:03:43;15.27;;;8.05;;
31760;SDS011;18335;51.486;7.562;2023-04-15T00:06:11;14.90;;;8.07;;
31760;SDS011;18335;51.486;7.562;2023-04-15T00:08:38;15.27;;;8.25;;
31760;SDS011;18335;51.486;7.562;2023-04-15T00:11:05;12.05;;;6.78;;
31760;SDS011;18335;51.486;7.562;2023-04-15T00:13:32;14.93;;;7.53;;
31760;SDS011;18335;51.486;7.562;2023-04-15T00:15:59;15.43;;;8.32;;
31760;SDS011;18335;51.486;7.562;2023-04-15T00:18:25;17.13;;;8.35;;
31760;SDS011;18335;51.486;7.562;2023-04-15T00:20:53;16.38;;;8.88;;
31760;SDS011;18335;51.486;7.562;2023-04-15T00:23:21;16.83;;;8.30;;
31760;SDS011;18335;51.486;7.562;2023-04-15T00:25:48;18.88;;;8.13;;
31760;SDS011;18335;51.486;7.562;2023-04-15T00:28:15;15.50;;;8.07;;
31760;SDS011;18335;51.486;7.562;2023-04-15T00:30:42;16.88;;;7.97;;
31760;SDS011;18335;51.486;7.562;2023-04-15T00:33:10;17.77;;;8.52;;
31760;SDS011;18335;51.486;7.562;2023-04-15T00:35:36;17.17;;;7.93;;
31760;SDS011;18335;51.486;7.562;2023-04-15T00:38:04;15.13;;;7.80;;
31760;SDS011;18335;51.486;7.562;2023-04-15T00:40:33;15.70;;;7.97;;
31760;SDS011;18335;51.486;7.562;2023-04-15T00:43:00;13.68;;;7.55;;
31760;SDS011;18335;51.486;7.562;2023-04-15T00:45:28;15.93;;;8.27;;
31760;SDS011;18335;51.486;7.562;2023-04-15T00:47:56;15.00;;;8.23;;
31760;SDS011;18335;51.486;7.562;2023-04-15T00:50:23;15.55;;;7.47;;
31760;SDS011;18335;51.486;7.562;2023-04-15T00:52:50;12.80;;;6.97;;
31760;SDS011;18335;51.486;7.562;2023-04-15T00:55:17;14.82;;;8.57;;
31760;SDS011;18335;51.486;7.562;2023-04-15T00:57:45;15.48;;;6.55;;
31760;SDS011;18335;51.486;7.562;2023-04-15T01:00:12;13.10;;;7.03;;
31760;SDS011;18335;51.486;7.562;2023-04-15T01:02:39;14.13;;;7.65;;
31760;SDS011;18335;51.486;7.562;2023-04-15T01:05:06;14.98;;;7.28;;
31760;SDS011;18335;51.486;7.562;2023-04-15T01:07:33;15.95;;;6.50;;
31760;SDS011;18335;51.486;7.562;2023-04-15T01:10:01;13.20;;;6.38;;
31760;SDS011;18335;51.486;7.562;2023-04-15T01:12:28;13.10;;;6.95;;
31760;SDS011;18335;51.486;7.562;2023-04-15T01:14:59;14.60;;;6.82;;
31760;SDS011;18335;51.486;7.562;2023-04-15T01:17:27;13.48;;;8.23;;
31760;SDS011;18335;51.486;7.562;2023-04-15T01:19:54;20.65;;;9.70;;
31760;SDS011;18335;51.486;7.562;2023-04-15T01:22:22;26.65;;;13.77;;
31760;SDS011;18335;51.486;7.562;2023-04-15T01:24:53;29.88;;;14.48;;
31760;SDS011;18335;51.486;7.562;2023-04-15T01:27:25;27.10;;;13.98;;
31760;SDS011;18335;51.486;7.562;2023-04-15T01:29:52;20.55;;;9.60;;
31760;SDS011;18335;51.486;7.562;2023-04-15T01:32:19;17.67;;;10.13;;
31760;SDS011;18335;51.486;7.562;2023-04-15T01:35:05;14.10;;;7.57;;
31760;SDS011;18335;51.486;7.562;2023-04-15T01:37:46;15.60;;;8.32;;
31760;SDS011;18335;51.486;7.562;2023-04-15T01:40:15;13.45;;;7.50;;
31760;SDS011;18335;51.486;7.562;2023-04-15T01:42:45;13.05;;;7.40;;
31760;SDS011;18335;51.486;7.562;2023-04-15T01:45:15;14.13;;;7.57;;
31760;SDS011;18335;51.486;7.562;2023-04-15T01:47:43;16.10;;;7.13;;
31760;SDS011;18335;51.486;7.562;2023-04-15T01:50:11;15.00;;;7.97;;
31760;SDS011;18335;51.486;7.562;2023-04-15T01:52:39;13.88;;;8.15;;
31760;SDS011;18335;51.486;7.562;2023-04-15T01:55:08;14.40;;;7.07;;
31760;SDS011;18335;51.486;7.562;2023-04-15T01:57:36;12.32;;;7.70;;
31760;SDS011;18335;51.486;7.562;2023-04-15T02:00:06;19.65;;;9.98;;
31760;SDS011;18335;51.486;7.562;2023-04-15T02:02:42;16.83;;;7.70;;
31760;SDS011;18335;51.486;7.562;2023-04-15T02:05:10;14.50;;;7.50;;
31760;SDS011;18335;51.486;7.562;2023-04-15T02:07:38;14.02;;;6.97;;
31760;SDS011;18335;51.486;7.562;2023-04-15T02:10:06;14.23;;;7.65;;
31760;SDS011;18335;51.486;7.562;2023-04-15T02:12:35;12.15;;;6.28;;
31760;SDS011;18335;51.486;7.562;2023-04-15T02:15:03;15.15;;;7.20;;
31760;SDS011;18335;51.486;7.562;2023-04-15T02:17:34;14.30;;;8.68;;
31760;SDS011;18335;51.486;7.562;2023-04-15T02:20:03;15.18;;;7.88;;
31760;SDS011;18335;51.486;7.562;2023-04-15T02:22:32;14.18;;;6.57;;
31760;SDS011;18335;51.486;7.562;2023-04-15T02:25:00;15.82;;;7.75;;
31760;SDS011;18335;51.486;7.562;2023-04-15T02:27:28;13.02;;;6.57;;
31760;SDS011;18335;51.486;7.562;2023-04-15T02:29:56;13.25;;;7.15;;
31760;SDS011;18335;51.486;7.562;2023-04-15T02:32:25;14.30;;;7.60;;
31760;SDS011;18335;51.486;7.562;2023-04-15T02:34:55;17.25;;;7.32;;
31760;SDS011;18335;51.486;7.562;2023-04-15T02:37:23;14.88;;;7.72;;
31760;SDS011;18335;51.486;7.562;2023-04-15T02:39:53;15.70;;;7.32;;
31760;SDS011;18335;51.486;7.562;2023-04-15T02:42:22;14.80;;;6.82;;
31760;SDS011;18335;51.486;7.562;2023-04-15T02:44:53;16.35;;;7.07;;
31760;SDS011;18335;51.486;7.562;2023-04-15T02:47:22;15.38;;;7.60;;
31760;SDS011;18335;51.486;7.562;2023-04-15T02:49:51;15.48;;;7.72;;
31760;SDS011;18335;51.486;7.562;2023-04-15T02:52:19;16.58;;;7.80;;
31760;SDS011;18335;51.486;7.562;2023-04-15T02:54:47;16.52;;;9.05;;
31760;SDS011;18335;51.486;7.562;2023-04-15T02:57:15;14.88;;;8.77;;
31760;SDS011;18335;51.486;7.562;2023-04-15T02:59:43;13.70;;;7.90;;
31760;SDS011;18335;51.486;7.562;2023-04-15T03:02:11;18.85;;;8.43;;
31760;SDS011;18335;51.486;7.562;2023-04-15T03:04:39;12.85;;;7.07;;
31760;SDS011;18335;51.486;7.562;2023-04-15T03:07:08;17.20;;;8.15;;
31760;SDS011;18335;51.486;7.562;2023-04-15T03:09:37;13.02;;;7.32;;
31760;SDS011;18335;51.486;7.562;2023-04-15T03:12:06;16.63;;;8.38;;
31760;SDS011;18335;51.486;7.562;2023-04-15T03:14:34;19.10;;;8.23;;
31760;SDS011;18335;51.486;7.562;2023-04-15T03:17:02;14.23;;;7.10;;
31760;SDS011;18335;51.486;7.562;2023-04-15T03:19:30;16.55;;;9.90;;
31760;SDS011;18335;51.486;7.562;2023-04-15T03:21:58;14.32;;;8.20;;
31760;SDS011;18335;51.486;7.562;2023-04-15T03:24:27;15.77;;;9.30;;
31760;SDS011;18335;51.486;7.562;2023-04-15T03:26:56;14.93;;;8.30;;
31760;SDS011;18335;51.486;7.562;2023-04-15T03:29:25;16.70;;;8.48;;
31760;SDS011;18335;51.486;7.562;2023-04-15T03:31:53;16.77;;;8.70;;
31760;SDS011;18335;51.486;7.562;2023-04-15T03:34:21;16.33;;;8.27;;
31760;SDS011;18335;51.486;7.562;2023-04-15T03:36:49;15.95;;;7.97;;
31760;SDS011;18335;51.486;7.562;2023-04-15T03:39:17;16.02;;;9.02;;
31760;SDS011;18335;51.486;7.562;2023-04-15T03:41:46;15.27;;;8.27;;
31760;SDS011;18335;51.486;7.562;2023-04-15T03:44:14;14.63;;;8.25;;
31760;SDS011;18335;51.486;7.562;2023-04-15T03:46:42;15.77;;;7.70;;
31760;SDS011;18335;51.486;7.562;2023-04-15T03:49:10;13.55;;;8.45;;
31760;SDS011;18335;51.486;7.562;2023-04-15T03:51:37;14.85;;;8.00;;
31760;SDS011;18335;51.486;7.562;2023-04-15T03:54:06;15.45;;;8.35;;
31760;SDS011;18335;51.486;7.562;2023-04-15T03:56:34;16.15;;;8.50;;
31760;SDS011;18335;51.486;7.562;2023-04-15T03:59:03;16.40;;;7.93;;
31760;SDS011;18335;51.486;7.562;2023-04-15T04:01:31;14.90;;;8.93;;
31760;SDS011;18335;51.486;7.562;2023-04-15T04:03:59;14.15;;;8.25;;
31760;SDS011;18335;51.486;7.562;2023-04-15T04:06:27;20.52;;;8.43;;
31760;SDS011;18335;51.486;7.562;2023-04-15T04:08:55;14.93;;;8.15;;
31760;SDS011;18335;51.486;7.562;2023-04-15T04:11:23;15.82;;;8.43;;
31760;SDS011;18335;51.486;7.562;2023-04-15T04:13:51;16.25;;;8.75;;
31760;SDS011;18335;51.486;7.562;2023-04-15T04:16:20;16.40;;;8.00;;
31760;SDS011;18335;51.486;7.562;2023-04-15T04:18:48;14.85;;;8.70;;
31760;SDS011;18335;51.486;7.562;2023-04-15T04:21:16;14.68;;;8.38;;
31760;SDS011;18335;51.486;7.562;2023-04-15T04:23:44;17.20;;;10.95;;
31760;SDS011;18335;51.486;7.562;2023-04-15T04:26:12;15.45;;;9.13;;
31760;SDS011;18335;51.486;7.562;2023-04-15T04:28:40;17.02;;;8.52;;
31760;SDS011;18335;51.486;7.562;2023-04-15T04:31:08;15.68;;;8.85;;
31760;SDS011;18335;51.486;7.562;2023-04-15T04:33:37;16.42;;;8.90;;
31760;SDS011;18335;51.486;7.562;2023-04-15T04:36:06;16.40;;;8.02;;
31760;SDS011;18335;51.486;7.562;2023-04-15T04:38:34;16.20;;;8.68;;
31760;SDS011;18335;51.486;7.562;2023-04-15T04:41:02;14.40;;;7.72;;
31760;SDS011;18335;51.486;7.562;2023-04-15T04:43:30;14.05;;;8.15;;
31760;SDS011;18335;51.486;7.562;2023-04-15T04:45:58;16.58;;;9.32;;
31760;SDS011;18335;51.486;7.562;2023-04-15T04:48:26;14.05;;;8.18;;
31760;SDS011;18335;51.486;7.562;2023-04-15T04:50:55;14.98;;;8.32;;
31760;SDS011;18335;51.486;7.562;2023-04-15T04:53:23;15.68;;;8.93;;
31760;SDS011;18335;51.486;7.562;2023-04-15T04:55:51;19.90;;;10.02;;
31760;SDS011;18335;51.486;7.562;2023-04-15T04:58:19;14.90;;;8.82;;
31760;SDS011;18335;51.486;7.562;2023-04-15T05:00:47;14.07;;;7.97;;
31760;SDS011;18335;51.486;7.562;2023-04-15T05:03:15;14.38;;;6.90;;
31760;SDS011;18335;51.486;7.562;2023-04-15T05:05:43;16.20;;;7.65;;
31760;SDS011;18335;51.486;7.562;2023-04-15T05:08:12;13.68;;;7.50;;
31760;SDS011;18335;51.486;7.562;2023-04-15T05:10:40;14.48;;;7.75;;
31760;SDS011;18335;51.486;7.562;2023-04-15T05:13:08;13.65;;;8.57;;
31760;SDS011;18335;51.486;7.562;2023-04-15T05:15:36;14.82;;;7.80;;
31760;SDS011;18335;51.486;7.562;2023-04-15T05:18:06;15.95;;;8.98;;
31760;SDS011;18335;51.486;7.562;2023-04-15T05:20:34;21.52;;;9.30;;
31760;SDS011;18335;51.486;7.562;2023-04-15T05:23:02;17.00;;;8.00;;
31760;SDS011;18335;51.486;7.562;2023-04-15T05:25:31;17.40;;;9.27;;
31760;SDS011;18335;51.486;7.562;2023-04-15T05:27:59;17.17;;;8.95;;
31760;SDS011;18335;51.486;7.562;2023-04-15T05:30:27;18.10;;;10.05;;
31760;SDS011;18335;51.486;7.562;2023-04-15T05:32:55;18.42;;;9.73;;
31760;SDS011;18335;51.486;7.562;2023-04-15T05:35:23;16.75;;;9.77;;
31760;SDS011;18335;51.486;7.562;2023-04-15T05:37:51;18.75;;;9.02;;
31760;SDS011;18335;51.486;7.562;2023-04-15T05:40:19;16.65;;;9.52;;
31760;SDS011;18335;51.486;7.562;2023-04-15T05:42:49;14.38;;;9.00;;
31760;SDS011;18335;51.486;7.562;2023-04-15T05:45:17;22.55;;;11.27;;
31760;SDS011;18335;51.486;7.562;2023-04-15T05:47:45;19.80;;;12.55;;
31760;SDS011;18335;51.486;7.562;2023-04-15T05:50:15;17.85;;;9.82;;
31760;SDS011;18335;51.486;7.562;2023-04-15T05:52:43;18.05;;;10.18;;
31760;SDS011;18335;51.486;7.562;2023-04-15T05:55:12;17.30;;;10.00;;
31760;SDS011;18335;51.486;7.562;2023-04-15T05:57:40;14.00;;;9.48;;
31760;SDS011;18335;51.486;7.562;2023-04-15T06:00:10;15.73;;;9.25;;
31760;SDS011;18335;51.486;7.562;2023-04-15T06:02:39;19.92;;;10.75;;
31760;SDS011;18335;51.486;7.562;2023-04-15T06:05:07;18.08;;;10.82;;
31760;SDS011;18335;51.486;7.562;2023-04-15T06:07:37;19.80;;;9.93;;
31760;SDS011;18335;51.486;7.562;2023-04-15T06:10:05;17.67;;;10.68;;
31760;SDS011;18335;51.486;7.562;2023-04-15T06:12:34;15.57;;;10.27;;
31760;SDS011;18335;51.486;7.562;2023-04-15T06:15:02;18.17;;;10.50;;
31760;SDS011;18335;51.486;7.562;2023-04-15T06:17:33;16.13;;;10.73;;
31760;SDS011;18335;51.486;7.562;2023-04-15T06:20:01;18.60;;;10.60;;
31760;SDS011;18335;51.486;7.562;2023-04-15T06:22:29;17.88;;;11.10;;
31760;SDS011;18335;51.486;7.562;2023-04-15T06:24:57;19.27;;;10.95;;
31760;SDS011;18335;51.486;7.562;2023-04-15T06:27:25;20.55;;;11.63;;
31760;SDS011;18335;51.486;7.562;2023-04-15T06:29:53;19.75;;;11.32;;
31760;SDS011;18335;51.486;7.562;2023-04-15T06:32:21;18.73;;;11.43;;
31760;SDS011;18335;51.486;7.562;2023-04-15T06:34:50;21.80;;;11.38;;
31760;SDS011;18335;51.486;7.562;2023-04-15T06:37:18;19.33;;;11.88;;
31760;SDS011;18335;51.486;7.562;2023-04-15T06:39:46;22.30;;;11.27;;
31760;SDS011;18335;51.486;7.562;2023-04-15T06:42:14;20.65;;;11.68;;
31760;SDS011;18335;51.486;7.562;2023-04-15T06:44:42;19.58;;;12.63;;
31760;SDS011;18335;51.486;7.562;2023-04-15T06:47:10;23.50;;;14.13;;
31760;SDS011;18335;51.486;7.562;2023-04-15T06:49:38;20.23;;;13.25;;
31760;SDS011;18335;51.486;7.562;2023-04-15T06:52:08;21.20;;;14.23;;
31760;SDS011;18335;51.486;7.562;2023-04-15T06:54:36;20.60;;;13.77;;
31760;SDS011;18335;51.486;7.562;2023-04-15T06:57:04;20.95;;;12.77;;
31760;SDS011;18335;51.486;7.562;2023-04-15T06:59:32;19.23;;;12.55;;
31760;SDS011;18335;51.486;7.562;2023-04-15T07:02:00;22.52;;;13.63;;
31760;SDS011;18335;51.486;7.562;2023-04-15T07:04:28;26.38;;;12.85;;
31760;SDS011;18335;51.486;7.562;2023-04-15T07:06:56;20.05;;;13.52;;
31760;SDS011;18335;51.486;7.562;2023-04-15T07:09:27;20.83;;;13.90;;
31760;SDS011;18335;51.486;7.562;2023-04-15T07:11:55;19.58;;;12.23;;
31760;SDS011;18335;51.486;7.562;2023-04-15T07:14:23;17.13;;;11.15;;
31760;SDS011;18335;51.486;7.562;2023-04-15T07:16:51;20.92;;;12.68;;
31760;SDS011;18335;51.486;7.562;2023-04-15T07:19:19;20.67;;;13.50;;
31760;SDS011;18335;51.486;7.562;2023-04-15T07:21:47;19.67;;;13.20;;
31760;SDS011;18335;51.486;7.562;2023-04-15T07:24:16;21.90;;;13.77;;
31760;SDS011;18335;51.486;7.562;2023-04-15T07:26:46;20.30;;;13.48;;
31760;SDS011;18335;51.486;7.562;2023-04-15T07:29:15;21.85;;;13.77;;
31760;SDS011;18335;51.486;7.562;2023-04-15T07:31:43;23.15;;;14.38;;
31760;SDS011;18335;51.486;7.562;2023-04-15T07:34:10;21.50;;;13.43;;
31760;SDS011;18335;51.486;7.562;2023-04-15T07:36:38;24.55;;;13.57;;
31760;SDS011;18335;51.486;7.562;2023-04-15T07:39:07;21.83;;;13.88;;
31760;SDS011;18335;51.486;7.562;2023-04-15T07:41:34;19.52;;;12.85;;
31760;SDS011;18335;51.486;7.562;2023-04-15T07:44:04;19.92;;;13.48;;
31760;SDS011;18335;51.486;7.562;2023-04-15T07:46:32;21.92;;;13.95;;
31760;SDS011;18335;51.486;7.562;2023-04-15T07:49:00;21.17;;;14.00;;
31760;SDS011;18335;51.486;7.562;2023-04-15T07:51:28;19.90;;;13.20;;
31760;SDS011;18335;51.486;7.562;2023-04-15T07:53:56;22.52;;;13.75;;
31760;SDS011;18335;51.486;7.562;2023-04-15T07:56:24;21.08;;;14.05;;
31760;SDS011;18335;51.486;7.562;2023-04-15T07:58:53;20.95;;;13.25;;
31760;SDS011;18335;51.486;7.562;2023-04-15T08:01:22;21.15;;;14.27;;
31760;SDS011;18335;51.486;7.562;2023-04-15T08:03:50;24.05;;;13.52;;
31760;SDS011;18335;51.486;7.562;2023-04-15T08:06:18;23.05;;;13.30;;
31760;SDS011;18335;51.486;7.562;2023-04-15T08:08:46;20.13;;;13.50;;
31760;SDS011;18335;51.486;7.562;2023-04-15T08:11:14;20.42;;;13.35;;
31760;SDS011;18335;51.486;7.562;2023-04-15T08:13:42;18.83;;;12.43;;
31760;SDS011;18335;51.486;7.562;2023-04-15T08:16:15;20.92;;;12.55;;
31760;SDS011;18335;51.486;7.562;2023-04-15T08:18:46;18.80;;;11.48;;
31760;SDS011;18335;51.486;7.562;2023-04-15T08:21:15;16.52;;;11.50;;
31760;SDS011;18335;51.486;7.562;2023-04-15T08:23:44;17.58;;;11.23;;
31760;SDS011;18335;51.486;7.562;2023-04-15T08:26:14;17.45;;;11.20;;
31760;SDS011;18335;51.486;7.562;2023-04-15T08:28:43;17.95;;;10.65;;
31760;SDS011;18335;51.486;7.562;2023-04-15T08:31:12;18.33;;;11.57;;
31760;SDS011;18335;51.486;7.562;2023-04-15T08:33:41;18.98;;;11.73;;
31760;SDS011;18335;51.486;7.562;2023-04-15T08:36:11;18.35;;;11.00;;
31760;SDS011;18335;51.486;7.562;2023-04-15T08:38:40;18.40;;;10.18;;
31760;SDS011;18335;51.486;7.562;2023-04-15T08:41:11;17.52;;;10.27;;
31760;SDS011;18335;51.486;7.562;2023-04-15T08:43:51;17.23;;;9.60;;
31760;SDS011;18335;51.486;7.562;2023-04-15T08:46:21;18.08;;;10.10;;
31760;SDS011;18335;51.486;7.562;2023-04-15T08:48:49;18.95;;;9.88;;
31760;SDS011;18335;51.486;7.562;2023-04-15T08:51:18;17.08;;;9.80;;
31760;SDS011;18335;51.486;7.562;2023-04-15T08:53:47;15.90;;;9.63;;
31760;SDS011;18335;51.486;7.562;2023-04-15T08:56:17;16.20;;;9.82;;
31760;SDS011;18335;51.486;7.562;2023-04-15T08:58:45;16.23;;;10.02;;
31760;SDS011;18335;51.486;7.562;2023-04-15T09:01:14;16.15;;;9.18;;
31760;SDS011;18335;51.486;7.562;2023-04-15T09:03:43;14.95;;;9.50;;
31760;SDS011;18335;51.486;7.562;2023-04-15T09:06:12;15.27;;;9.57;;
31760;SDS011;18335;51.486;7.562;2023-04-15T09:08:41;15.63;;;8.60;;
31760;SDS011;18335;51.486;7.562;2023-04-15T09:11:10;15.35;;;8.80;;
31760;SDS011;18335;51.486;7.562;2023-04-15T09:13:38;14.65;;;8.75;;
31760;SDS011;18335;51.486;7.562;2023-04-15T09:16:07;14.93;;;9.75;;
31760;SDS011;18335;51.486;7.562;2023-04-15T09:18:36;15.00;;;9.30;;
31760;SDS011;18335;51.486;7.562;2023-04-15T09:21:05;16.77;;;9.63;;
31760;SDS011;18335;51.486;7.562;2023-04-15T09:23:34;13.93;;;8.57;;
31760;SDS011;18335;51.486;7.562;2023-04-15T09:26:04;15.15;;;8.95;;
31760;SDS011;18335;51.486;7.562;2023-04-15T09:28:33;17.40;;;9.40;;
31760;SDS011;18335;51.486;7.562;2023-04-15T09:31:08;14.95;;;9.13;;
31760;SDS011;18335;51.486;7.562;2023-04-15T09:33:53;16.70;;;10.55;;
31760;SDS011;18335;51.486;7.562;2023-04-15T09:36:22;14.45;;;10.18;;
31760;SDS011;18335;51.486;7.562;2023-04-15T09:38:53;19.88;;;12.55;;
31760;SDS011;18335;51.486;7.562;2023-04-15T09:41:24;13.50;;;9.15;;
31760;SDS011;18335;51.486;7.562;2023-04-15T09:43:52;18.05;;;11.55;;
31760;SDS011;18335;51.486;7.562;2023-04-15T09:46:20;16.67;;;10.40;;
31760;SDS011;18335;51.486;7.562;2023-04-15T09:49:07;20.30;;;12.82;;
31760;SDS011;18335;51.486;7.562;2023-04-15T09:51:37;15.35;;;9.05;;
31760;SDS011;18335;51.486;7.562;2023-04-15T09:54:05;13.50;;;8.90;;
31760;SDS011;18335;51.486;7.562;2023-04-15T09:56:35;15.80;;;10.30;;
31760;SDS011;18335;51.486;7.562;2023-04-15T09:59:07;13.27;;;9.48;;
31760;SDS011;18335;51.486;7.562;2023-04-15T10:01:35;15.77;;;9.88;;
31760;SDS011;18335;51.486;7.562;2023-04-15T10:04:03;15.43;;;9.70;;
31760;SDS011;18335;51.486;7.562;2023-04-15T10:06:31;14.40;;;9.25;;
31760;SDS011;18335;51.486;7.562;2023-04-15T10:09:01;16.17;;;9.70;;
31760;SDS011;18335;51.486;7.562;2023-04-15T10:11:29;14.98;;;9.55;;
31760;SDS011;18335;51.486;7.562;2023-04-15T10:13:59;14.77;;;9.02;;
31760;SDS011;18335;51.486;7.562;2023-04-15T10:16:28;14.65;;;8.77;;
31760;SDS011;18335;51.486;7.562;2023-04-15T10:19:00;13.80;;;7.32;;
31760;SDS011;18335;51.486;7.562;2023-04-15T10:21:29;13.00;;;7.82;;
31760;SDS011;18335;51.486;7.562;2023-04-15T10:23:57;13.27;;;7.30;;
31760;SDS011;18335;51.486;7.562;2023-04-15T10:26:27;14.50;;;8.10;;
31760;SDS011;18335;51.486;7.562;2023-04-15T10:28:55;14.05;;;8.05;;
31760;SDS011;18335;51.486;7.562;2023-04-15T10:31:26;13.20;;;7.05;;
31760;SDS011;18335;51.486;7.562;2023-04-15T10:33:55;14.50;;;7.93;;
31760;SDS011;18335;51.486;7.562;2023-04-15T10:36:24;14.05;;;7.05;;
31760;SDS011;18335;51.486;7.562;2023-04-15T10:38:53;13.35;;;8.07;;
31760;SDS011;18335;51.486;7.562;2023-04-15T10:41:22;13.68;;;7.72;;
31760;SDS011;18335;51.486;7.562;2023-04-15T10:43:52;14.77;;;8.00;;
31760;SDS011;18335;51.486;7.562;2023-04-15T10:46:28;14.70;;;7.45;;
31760;SDS011;18335;51.486;7.562;2023-04-15T10:49:07;15.40;;;7.97;;
31760;SDS011;18335;51.486;7.562;2023-04-15T10:51:37;14.45;;;8.15;;
31760;SDS011;18335;51.486;7.562;2023-04-15T10:54:08;12.93;;;7.07;;
31760;SDS011;18335;51.486;7.562;2023-04-15T10:56:40;13.70;;;7.88;;
31760;SDS011;18335;51.486;7.562;2023-04-15T10:59:09;15.05;;;7.97;;
31760;SDS011;18335;51.486;7.562;2023-04-15T11:01:50;15.35;;;7.90;;
31760;SDS011;18335;51.486;7.562;2023-04-15T11:07:34;18.23;;;9.55;;
31760;SDS011;18335;51.486;7.562;2023-04-15T11:13:24;17.00;;;10.40;;
31760;SDS011;18335;51.486;7.562;2023-04-15T11:15:55;16.10;;;10.52;;
31760;SDS011;18335;51.486;7.562;2023-04-15T11:18:33;14.30;;;8.38;;
31760;SDS011;18335;51.486;7.562;2023-04-15T11:21:02;13.55;;;7.95;;
31760;SDS011;18335;51.486;7.562;2023-04-15T11:23:33;12.13;;;7.00;;
31760;SDS011;18335;51.486;7.562;2023-04-15T11:26:02;12.15;;;6.88;;
31760;SDS011;18335;51.486;7.562;2023-04-15T11:28:34;12.23;;;6.43;;
31760;SDS011;18335;51.486;7.562;2023-04-15T11:31:07;14.25;;;7.90;;
31760;SDS011;18335;51.486;7.562;2023-04-15T11:33:43;13.30;;;7.10;;
31760;SDS011;18335;51.486;7.562;2023-04-15T11:36:12;11.77;;;7.35;;
31760;SDS011;18335;51.486;7.562;2023-04-15T11:38:44;13.57;;;7.70;;
31760;SDS011;18335;51.486;7.562;2023-04-15T11:41:13;15.18;;;7.70;;
31760;SDS011;18335;51.486;7.562;2023-04-15T11:43:42;13.73;;;7.63;;
31760;SDS011;18335;51.486;7.562;2023-04-15T11:46:09;12.70;;;7.05;;
31760;SDS011;18335;51.486;7.562;2023-04-15T11:48:41;13.00;;;6.95;;
31760;SDS011;18335;51.486;7.562;2023-04-15T11:51:10;15.38;;;8.30;;
31760;SDS011;18335;51.486;7.562;2023-04-15T11:53:38;15.05;;;9.18;;
31760;SDS011;18335;51.486;7.562;2023-04-15T11:56:07;22.40;;;10.32;;
31760;SDS011;18335;51.486;7.562;2023-04-15T11:58:35;13.10;;;7.82;;
31760;SDS011;18335;51.486;7.562;2023-04-15T12:01:03;13.75;;;8.05;;
31760;SDS011;18335;51.486;7.562;2023-04-15T12:03:35;13.70;;;8.38;;
31760;SDS011;18335;51.486;7.562;2023-04-15T12:06:14;14.45;;;8.00;;
31760;SDS011;18335;51.486;7.562;2023-04-15T12:08:56;14.80;;;8.30;;
31760;SDS011;18335;51.486;7.562;2023-04-15T12:11:28;12.23;;;7.78;;
31760;SDS011;18335;51.486;7.562;2023-04-15T12:13:58;14.93;;;7.82;;
31760;SDS011;18335;51.486;7.562;2023-04-15T12:16:30;14.10;;;7.07;;
31760;SDS011;18335;51.486;7.562;2023-04-15T12:18:58;13.93;;;8.10;;
31760;SDS011;18335;51.486;7.562;2023-04-15T12:21:32;14.63;;;7.82;;
31760;SDS011;18335;51.486;7.562;2023-04-15T12:24:00;13.85;;;7.53;;
31760;SDS011;18335;51.486;7.562;2023-04-15T12:26:31;13.35;;;8.10;;
31760;SDS011;18335;51.486;7.562;2023-04-15T12:29:00;12.98;;;7.20;;
31760;SDS011;18335;51.486;7.562;2023-04-15T12:31:27;12.05;;;6.93;;
31760;SDS011;18335;51.486;7.562;2023-04-15T12:33:55;14.25;;;8.20;;
31760;SDS011;18335;51.486;7.562;2023-04-15T12:36:22;14.40;;;7.25;;
31760;SDS011;18335;51.486;7.562;2023-04-15T12:38:50;13.50;;;7.72;;
31760;SDS011;18335;51.486;7.562;2023-04-15T12:41:17;14.98;;;7.38;;
31760;SDS011;18335;51.486;7.562;2023-04-15T12:43:44;13.38;;;7.30;;
31760;SDS011;18335;51.486;7.562;2023-04-15T12:46:11;13.38;;;7.78;;
31760;SDS011;18335;51.486;7.562;2023-04-15T12:48:37;13.40;;;8.07;;
31760;SDS011;18335;51.486;7.562;2023-04-15T12:51:05;12.90;;;6.90;;
31760;SDS011;18335;51.486;7.562;2023-04-15T12:53:32;11.48;;;7.40;;
31760;SDS011;18335;51.486;7.562;2023-04-15T12:56:00;12.90;;;6.68;;
31760;SDS011;18335;51.486;7.562;2023-04-15T12:58:27;14.57;;;7.15;;
31760;SDS011;18335;51.486;7.562;2023-04-15T13:00:53;12.35;;;7.65;;
31760;SDS011;18335;51.486;7.562;2023-04-15T13:03:21;12.45;;;6.85;;
31760;SDS011;18335;51.486;7.562;2023-04-15T13:05:48;16.30;;;8.20;;
31760;SDS011;18335;51.486;7.562;2023-04-15T13:08:14;9.90;;;6.53;;
31760;SDS011;18335;51.486;7.562;2023-04-15T13:10:41;11.10;;;7.10;;
31760;SDS011;18335;51.486;7.562;2023-04-15T13:13:09;12.77;;;6.78;;
31760;SDS011;18335;51.486;7.562;2023-04-15T13:15:36;11.90;;;6.57;;
31760;SDS011;18335;51.486;7.562;2023-04-15T13:18:03;11.90;;;7.18;;
31760;SDS011;18335;51.486;7.562;2023-04-15T13:20:30;10.90;;;6.45;;
31760;SDS011;18335;51.486;7.562;2023-04-15T13:22:57;12.50;;;7.43;;
31760;SDS011;18335;51.486;7.562;2023-04-15T13:25:23;11.50;;;6.85;;
31760;SDS011;18335;51.486;7.562;2023-04-15T13:27:52;12.45;;;6.53;;
31760;SDS011;18335;51.486;7.562;2023-04-15T13:30:20;11.65;;;6.13;;
31760;SDS011;18335;51.486;7.562;2023-04-15T13:32:46;12.52;;;6.95;;
31760;SDS011;18335;51.486;7.562;2023-04-15T13:35:13;13.65;;;7.30;;
31760;SDS011;18335;51.486;7.562;2023-04-15T13:37:40;10.80;;;6.45;;
31760;SDS011;18335;51.486;7.562;2023-04-15T13:40:07;15.43;;;7.38;;
31760;SDS011;18335;51.486;7.562;2023-04-15T13:42:35;11.07;;;6.60;;
31760;SDS011;18335;51.486;7.562;2023-04-15T13:45:01;12.00;;;6.72;;
31760;SDS011;18335;51.486;7.562;2023-04-15T13:47:30;13.57;;;6.90;;
31760;SDS011;18335;51.486;7.562;2023-04-15T13:49:57;13.02;;;6.80;;
31760;SDS011;18335;51.486;7.562;2023-04-15T13:52:23;12.63;;;7.20;;
31760;SDS011;18335;51.486;7.562;2023-04-15T13:54:50;12.35;;;6.90;;
31760;SDS011;18335;51.486;7.562;2023-04-15T13:57:17;11.90;;;6.28;;
31760;SDS011;18335;51.486;7.562;2023-04-15T13:59:43;9.73;;;5.80;;
31760;SDS011;18335;51.486;7.562;2023-04-15T14:02:10;10.23;;;5.32;;
31760;SDS011;18335;51.486;7.562;2023-04-15T14:04:38;11.57;;;5.85;;
31760;SDS011;18335;51.486;7.562;2023-04-15T14:07:05;13.55;;;5.90;;
31760;SDS011;18335;51.486;7.562;2023-04-15T14:09:33;10.82;;;4.88;;
31760;SDS011;18335;51.486;7.562;2023-04-15T14:12:00;8.55;;;5.18;;
31760;SDS011;18335;51.486;7.562;2023-04-15T14:14:27;9.27;;;4.88;;
31760;SDS011;18335;51.486;7.562;2023-04-15T14:16:54;9.50;;;3.90;;
31760;SDS011;18335;51.486;7.562;2023-04-15T14:19:21;11.32;;;4.50;;
31760;SDS011;18335;51.486;7.562;2023-04-15T14:21:50;9.45;;;5.20;;
31760;SDS011;18335;51.486;7.562;2023-04-15T14:24:17;10.15;;;5.07;;
31760;SDS011;18335;51.486;7.562;2023-04-15T14:26:43;10.77;;;5.10;;
31760;SDS011;18335;51.486;7.562;2023-04-15T14:29:10;12.38;;;5.72;;
31760;SDS011;18335;51.486;7.562;2023-04-15T14:31:37;11.30;;;5.32;;
31760;SDS011;18335;51.486;7.562;2023-04-15T14:34:04;11.60;;;5.13;;
31760;SDS011;18335;51.486;7.562;2023-04-15T14:36:31;9.38;;;4.85;;
31760;SDS011;18335;51.486;7.562;2023-04-15T14:38:59;8.25;;;4.38;;
31760;SDS011;18335;51.486;7.562;2023-04-15T14:41:25;10.07;;;4.68;;
31760;SDS011;18335;51.486;7.562;2023-04-15T14:43:52;8.77;;;4.18;;
31760;SDS011;18335;51.486;7.562;2023-04-15T14:46:19;9.00;;;5.07;;